createdAt,value
2022-11-29T00:01:26.009Z,3.19
2022-11-29T00:03:53.810Z,3.19
2022-11-29T00:06:27.428Z,3.24
2022-11-29T00:08:55.637Z,3.30
2022-11-29T00:11:51.602Z,3.33
2022-11-29T00:14:19.614Z,3.34
2022-11-29T00:16:51.076Z,3.29
2022-11-29T00:19:18.122Z,3.24
2022-11-29T00:21:44.981Z,3.19
2022-11-29T00:24:11.846Z,3.17
2022-11-29T00:26:38.584Z,3.12
2022-11-29T00:29:06.149Z,3.07
2022-11-29T00:31:33.603Z,3.07
2022-11-29T00:34:02.860Z,3.05
2022-11-29T00:36:29.660Z,3.13
2022-11-29T00:38:56.546Z,3.15
2022-11-29T00:41:23.370Z,3.18
2022-11-29T00:43:50.221Z,3.25
2022-11-29T00:46:16.987Z,3.28
2022-11-29T00:48:43.891Z,3.32
2022-11-29T00:51:10.910Z,3.42
2022-11-29T00:53:38.065Z,3.47
2022-11-29T00:56:05.623Z,3.49
2022-11-29T00:58:32.925Z,3.44
2022-11-29T01:00:59.741Z,3.47
2022-11-29T01:03:26.608Z,3.50
2022-11-29T01:05:53.638Z,3.52
2022-11-29T01:08:20.456Z,3.52
2022-11-29T01:10:47.306Z,3.51
2022-11-29T01:13:14.175Z,3.47
2022-11-29T01:15:41.831Z,3.50
2022-11-29T01:18:08.615Z,3.49
2022-11-29T01:20:35.414Z,3.50
2022-11-29T01:23:02.237Z,3.53
2022-11-29T01:25:29.529Z,3.57
2022-11-29T01:27:56.278Z,3.53
2022-11-29T01:30:22.994Z,3.54
2022-11-29T01:32:49.856Z,3.52
2022-11-29T01:35:17.224Z,3.51
2022-11-29T01:37:43.941Z,3.50
2022-11-29T01:40:11.214Z,3.58
2022-11-29T01:42:37.965Z,3.58
2022-11-29T01:45:08.007Z,3.58
2022-11-29T01:47:37.470Z,3.54
2022-11-29T01:50:04.618Z,3.52
2022-11-29T01:52:32.863Z,3.53
2022-11-29T01:55:02.624Z,3.50
2022-11-29T01:57:30.474Z,3.51
2022-11-29T02:00:02.771Z,3.54
2022-11-29T02:02:51.084Z,3.49
2022-11-29T02:05:18.958Z,3.47
2022-11-29T02:07:48.693Z,3.52
2022-11-29T02:10:17.495Z,3.48
2022-11-29T02:13:15.431Z,3.47
2022-11-29T02:16:10.547Z,3.48
2022-11-29T02:21:53.508Z,3.48
2022-11-29T02:24:26.504Z,3.47
2022-11-29T02:27:00.295Z,3.47
2022-11-29T02:29:46.014Z,3.48
2022-11-29T02:32:36.783Z,3.48
2022-11-29T02:35:03.549Z,3.46
2022-11-29T02:37:41.510Z,3.48
2022-11-29T02:40:23.379Z,3.45
2022-11-29T02:43:26.842Z,3.46
2022-11-29T02:46:55.387Z,3.43
2022-11-29T02:49:24.994Z,3.40
2022-11-29T02:52:07.691Z,3.41
2022-11-29T02:54:58.340Z,3.45
2022-11-29T02:57:37.456Z,3.41
2022-11-29T03:00:08.428Z,3.36
2022-11-29T03:02:57.216Z,3.43
2022-11-29T03:06:02.369Z,3.49
2022-11-29T03:08:35.398Z,3.53
2022-11-29T03:11:24.491Z,3.55
2022-11-29T03:14:14.792Z,3.55
2022-11-29T03:17:25.742Z,3.55
2022-11-29T03:20:22.080Z,3.56
2022-11-29T03:22:54.698Z,3.53
2022-11-29T03:25:39.441Z,3.57
2022-11-29T03:28:25.592Z,3.57
2022-11-29T03:31:15.381Z,3.51
2022-11-29T03:34:06.358Z,3.42
2022-11-29T03:36:53.833Z,3.41
2022-11-29T03:39:30.667Z,3.45
2022-11-29T03:42:04.002Z,3.45
2022-11-29T03:44:39.752Z,3.41
2022-11-29T03:47:16.517Z,3.34
2022-11-29T03:50:00.249Z,3.36
2022-11-29T03:52:34.347Z,3.30
2022-11-29T03:55:10.174Z,3.23
2022-11-29T03:57:49.887Z,3.24
2022-11-29T04:00:17.953Z,3.29
2022-11-29T04:03:12.140Z,3.22
2022-11-29T04:05:53.523Z,3.02
2022-11-29T04:08:35.121Z,3.08
2022-11-29T04:11:04.927Z,3.08
2022-11-29T04:13:54.690Z,3.05
2022-11-29T04:16:35.316Z,3.04
2022-11-29T04:19:26.380Z,3.01
2022-11-29T04:22:17.776Z,3.01
2022-11-29T04:25:05.882Z,2.96
2022-11-29T04:27:58.077Z,2.98
2022-11-29T04:30:25.958Z,2.96
2022-11-29T04:33:01.810Z,2.99
2022-11-29T04:36:02.410Z,2.97
2022-11-29T04:38:31.828Z,2.85
2022-11-29T04:41:29.473Z,2.94
2022-11-29T04:44:05.166Z,2.94
2022-11-29T04:47:02.622Z,2.89
2022-11-29T04:50:00.221Z,2.90
2022-11-29T04:52:26.907Z,2.90
2022-11-29T04:55:04.723Z,2.89
2022-11-29T04:57:48.707Z,2.82
2022-11-29T05:00:21.837Z,2.81
2022-11-29T05:02:56.612Z,2.83
2022-11-29T05:05:51.008Z,2.84
2022-11-29T05:08:45.093Z,2.86
2022-11-29T05:11:26.468Z,2.94
2022-11-29T05:14:02.658Z,2.97
2022-11-29T05:17:00.132Z,2.98
2022-11-29T05:20:04.914Z,3.08
2022-11-29T05:22:52.850Z,3.15
2022-11-29T05:25:39.921Z,3.25
2022-11-29T05:28:20.447Z,3.30
2022-11-29T05:31:41.071Z,3.30
2022-11-29T05:34:07.697Z,3.37
2022-11-29T05:36:59.559Z,3.37
2022-11-29T05:39:26.229Z,3.40
2022-11-29T05:42:11.521Z,3.44
2022-11-29T05:44:44.763Z,3.36
2022-11-29T05:47:16.695Z,3.22
2022-11-29T05:50:14.232Z,3.25
2022-11-29T05:53:02.399Z,3.30
2022-11-29T05:55:41.458Z,3.21
2022-11-29T05:58:27.062Z,3.12
2022-11-29T06:01:04.490Z,3.10
2022-11-29T06:03:38.819Z,3.03
2022-11-29T06:06:30.695Z,3.06
2022-11-29T06:09:06.323Z,3.15
2022-11-29T06:11:35.361Z,3.14
2022-11-29T06:14:13.555Z,3.18
2022-11-29T06:16:57.000Z,3.17
2022-11-29T06:19:42.762Z,3.15
2022-11-29T06:22:31.003Z,3.15
2022-11-29T06:25:10.304Z,3.14
2022-11-29T06:28:06.762Z,3.14
2022-11-29T06:30:51.595Z,3.12
2022-11-29T06:33:23.112Z,3.12
2022-11-29T06:36:19.395Z,3.20
2022-11-29T06:38:46.768Z,3.22
2022-11-29T06:41:18.369Z,3.27
2022-11-29T06:43:45.587Z,3.32
2022-11-29T06:46:28.036Z,3.39
2022-11-29T06:49:03.956Z,3.44
2022-11-29T06:51:43.304Z,3.42
2022-11-29T06:54:41.219Z,3.42
2022-11-29T06:57:39.587Z,3.52
2022-11-29T07:00:27.217Z,3.65
2022-11-29T07:03:03.129Z,3.75
2022-11-29T07:05:33.614Z,3.84
2022-11-29T07:08:20.820Z,3.84
2022-11-29T07:10:50.573Z,3.80
2022-11-29T07:13:18.757Z,3.88
2022-11-29T07:15:51.590Z,3.91
2022-11-29T07:18:34.791Z,3.93
2022-11-29T07:21:20.341Z,3.86
2022-11-29T07:24:43.955Z,3.86
2022-11-29T07:27:26.675Z,3.92
2022-11-29T07:30:11.765Z,4.01
2022-11-29T07:32:50.052Z,4.08
2022-11-29T07:35:19.807Z,4.11
2022-11-29T07:38:08.791Z,4.23
2022-11-29T07:40:56.883Z,4.55
2022-11-29T07:43:29.579Z,4.54
2022-11-29T07:45:57.326Z,4.46
2022-11-29T07:48:24.329Z,4.46
2022-11-29T07:50:51.145Z,4.50
2022-11-29T07:53:20.491Z,4.52
2022-11-29T07:55:47.674Z,4.52
2022-11-29T07:58:16.322Z,4.47
2022-11-29T08:00:43.888Z,4.52
2022-11-29T08:03:11.473Z,4.47
2022-11-29T08:05:38.646Z,4.49
2022-11-29T08:08:06.627Z,4.53
2022-11-29T08:10:34.212Z,4.57
2022-11-29T08:13:00.952Z,4.55
2022-11-29T08:15:27.803Z,4.35
2022-11-29T08:17:54.630Z,4.28
2022-11-29T08:20:21.442Z,4.29
2022-11-29T08:22:59.210Z,4.27
2022-11-29T08:25:27.375Z,4.21
2022-11-29T08:27:54.871Z,4.27
2022-11-29T08:30:22.479Z,4.18
2022-11-29T08:32:51.777Z,4.18
2022-11-29T08:35:20.531Z,4.21
2022-11-29T08:37:47.251Z,4.27
2022-11-29T08:40:14.562Z,4.26
2022-11-29T08:42:41.331Z,4.38
2022-11-29T08:45:09.787Z,4.50
2022-11-29T08:47:37.560Z,4.61
2022-11-29T08:50:18.389Z,4.54
2022-11-29T08:53:06.161Z,4.55
2022-11-29T08:55:37.194Z,4.64
2022-11-29T08:58:06.357Z,4.66
2022-11-29T09:00:34.024Z,4.69
2022-11-29T09:03:21.632Z,4.74
2022-11-29T09:05:48.522Z,4.75
2022-11-29T09:08:15.619Z,4.81
2022-11-29T09:10:43.179Z,4.89
2022-11-29T09:13:10.365Z,4.97
2022-11-29T09:15:38.438Z,4.95
2022-11-29T09:18:05.920Z,4.99
2022-11-29T09:20:33.446Z,5.04
2022-11-29T09:23:00.474Z,5.07
2022-11-29T09:25:27.833Z,5.00
2022-11-29T09:27:54.602Z,4.99
2022-11-29T09:30:23.784Z,5.02
2022-11-29T09:32:50.749Z,4.99
2022-11-29T09:35:17.583Z,5.09
2022-11-29T09:37:44.602Z,5.15
2022-11-29T09:40:23.228Z,5.16
2022-11-29T09:43:22.341Z,5.20
2022-11-29T09:45:54.673Z,5.20
2022-11-29T09:48:56.905Z,5.18
2022-11-29T09:51:29.729Z,5.19
2022-11-29T09:54:25.833Z,5.21
2022-11-29T09:56:55.623Z,5.20
2022-11-29T09:59:43.751Z,5.26
2022-11-29T10:02:10.446Z,5.31
2022-11-29T10:04:40.428Z,5.38
2022-11-29T10:07:16.533Z,5.37
2022-11-29T10:09:53.674Z,5.35
2022-11-29T10:12:25.744Z,5.29
2022-11-29T10:14:58.164Z,5.31
2022-11-29T10:17:28.635Z,5.33
2022-11-29T10:20:00.366Z,5.45
2022-11-29T10:22:54.524Z,5.59
2022-11-29T10:25:30.925Z,5.69
2022-11-29T10:27:57.904Z,5.81
2022-11-29T10:30:24.736Z,5.78
2022-11-29T10:32:56.467Z,5.82
2022-11-29T10:35:24.007Z,5.82
2022-11-29T10:38:22.623Z,5.85
2022-11-29T10:40:46.187Z,5.89
2022-11-29T10:43:13.184Z,5.98
2022-11-29T10:45:50.807Z,6.03
2022-11-29T10:48:20.185Z,6.00
2022-11-29T10:50:49.114Z,5.94
2022-11-29T10:53:46.923Z,5.90
2022-11-29T10:56:35.533Z,5.90
2022-11-29T10:59:06.236Z,5.87
2022-11-29T11:01:37.404Z,5.95
2022-11-29T11:04:07.482Z,6.04
2022-11-29T11:06:49.330Z,6.16
2022-11-29T11:09:35.236Z,6.21
2022-11-29T11:12:05.866Z,6.27
2022-11-29T11:14:37.730Z,6.27
2022-11-29T11:17:34.079Z,6.24
2022-11-29T11:20:22.878Z,6.16
2022-11-29T11:23:07.500Z,6.16
2022-11-29T11:25:39.076Z,6.09
2022-11-29T11:28:38.269Z,6.04
2022-11-29T11:31:08.351Z,6.05
2022-11-29T11:33:38.466Z,5.97
2022-11-29T11:36:24.164Z,6.03
2022-11-29T11:38:56.671Z,6.02
2022-11-29T11:41:49.359Z,6.04
2022-11-29T11:44:47.501Z,6.04
2022-11-29T11:47:18.470Z,6.06
2022-11-29T11:49:48.237Z,6.07
2022-11-29T11:52:23.519Z,6.05
2022-11-29T11:54:58.965Z,6.00
2022-11-29T11:57:26.587Z,5.96
2022-11-29T11:59:55.872Z,6.00
2022-11-29T12:02:40.581Z,6.05
2022-11-29T12:05:14.270Z,6.06
2022-11-29T12:08:07.428Z,6.12
2022-11-29T12:10:34.979Z,6.07
2022-11-29T12:13:02.944Z,6.08
2022-11-29T12:15:33.151Z,6.08
2022-11-29T12:18:14.406Z,6.02
2022-11-29T12:20:47.135Z,6.01
2022-11-29T12:23:14.091Z,6.04
2022-11-29T12:25:53.946Z,5.91
2022-11-29T12:28:21.633Z,5.85
2022-11-29T12:31:07.095Z,5.76
2022-11-29T12:33:50.392Z,5.78
2022-11-29T12:36:33.844Z,5.81
2022-11-29T12:39:07.709Z,5.82
2022-11-29T12:41:57.804Z,5.94
2022-11-29T12:44:43.422Z,5.79
2022-11-29T12:47:55.352Z,5.75
2022-11-29T12:50:46.734Z,5.70
2022-11-29T12:53:47.355Z,5.53
2022-11-29T12:56:31.186Z,5.50
2022-11-29T12:59:17.674Z,5.57
2022-11-29T13:02:26.190Z,5.59
2022-11-29T13:05:14.899Z,5.56
2022-11-29T13:08:15.492Z,5.39
2022-11-29T13:10:51.017Z,5.19
2022-11-29T13:13:43.714Z,5.05
2022-11-29T13:16:31.334Z,4.96
2022-11-29T13:19:32.358Z,4.92
2022-11-29T13:22:31.293Z,4.93
2022-11-29T13:25:01.194Z,4.88
2022-11-29T13:27:35.189Z,5.01
2022-11-29T13:30:02.833Z,5.11
2022-11-29T13:32:45.631Z,5.23
2022-11-29T13:35:27.706Z,5.31
2022-11-29T13:38:20.627Z,5.32
2022-11-29T13:40:56.215Z,5.30
2022-11-29T13:43:37.146Z,5.27
2022-11-29T13:46:25.270Z,5.31
2022-11-29T13:48:53.224Z,5.16
2022-11-29T13:51:41.174Z,5.07
2022-11-29T13:54:27.088Z,5.01
2022-11-29T13:57:08.652Z,4.97
2022-11-29T13:59:41.577Z,4.83
2022-11-29T14:02:29.230Z,4.84
2022-11-29T14:04:56.119Z,4.75
2022-11-29T14:07:23.086Z,4.66
2022-11-29T14:10:05.825Z,4.48
2022-11-29T14:12:40.507Z,4.49
2022-11-29T14:15:27.690Z,4.48
2022-11-29T14:17:57.375Z,4.55
2022-11-29T14:20:24.927Z,4.40
2022-11-29T14:23:07.521Z,4.32
2022-11-29T14:25:54.189Z,4.57
2022-11-29T14:28:20.932Z,4.67
2022-11-29T14:30:47.850Z,4.62
2022-11-29T14:33:29.193Z,4.56
2022-11-29T14:36:14.439Z,4.50
2022-11-29T14:38:47.393Z,4.54
2022-11-29T14:41:26.493Z,4.59
2022-11-29T14:44:06.131Z,4.51
2022-11-29T14:46:33.402Z,4.51
2022-11-29T14:49:01.907Z,4.56
2022-11-29T14:51:33.060Z,4.49
2022-11-29T14:54:18.401Z,4.36
2022-11-29T14:56:47.312Z,4.31
2022-11-29T14:59:45.237Z,4.32
2022-11-29T15:02:17.879Z,4.42
2022-11-29T15:04:44.976Z,4.46
2022-11-29T15:07:17.079Z,4.35
2022-11-29T15:09:44.311Z,4.29
2022-11-29T15:12:34.918Z,4.15
2022-11-29T15:15:24.344Z,4.08
2022-11-29T15:17:53.295Z,4.00
2022-11-29T15:20:38.205Z,3.99
2022-11-29T15:23:07.855Z,4.00
2022-11-29T15:25:34.843Z,4.06
2022-11-29T15:28:03.692Z,4.04
2022-11-29T15:30:34.686Z,4.01
2022-11-29T15:33:04.515Z,3.93
2022-11-29T15:35:33.380Z,3.95
2022-11-29T15:38:00.083Z,4.02
2022-11-29T15:40:35.270Z,4.00
2022-11-29T15:43:17.386Z,4.00
2022-11-29T15:45:52.254Z,4.04
2022-11-29T15:48:23.507Z,4.05
2022-11-29T15:50:50.341Z,4.04
2022-11-29T15:53:25.497Z,4.02
2022-11-29T15:55:54.279Z,4.08
2022-11-29T15:58:21.430Z,4.12
2022-11-29T16:00:49.799Z,4.09
2022-11-29T16:03:25.203Z,4.09
2022-11-29T16:05:55.612Z,4.15
2022-11-29T16:08:22.772Z,4.16
2022-11-29T16:10:53.059Z,4.16
2022-11-29T16:13:25.854Z,4.21
2022-11-29T16:16:14.739Z,4.19
2022-11-29T16:18:44.232Z,4.12
2022-11-29T16:21:28.046Z,4.08
2022-11-29T16:23:55.563Z,4.06
2022-11-29T16:26:37.313Z,4.02
2022-11-29T16:29:03.927Z,4.03
2022-11-29T16:31:35.290Z,4.00
2022-11-29T16:34:19.918Z,3.94
2022-11-29T16:36:46.692Z,3.97
2022-11-29T16:39:22.171Z,3.96
2022-11-29T16:42:26.195Z,3.99
2022-11-29T16:45:02.286Z,4.03
2022-11-29T16:47:31.140Z,4.00
2022-11-29T16:50:09.848Z,4.02
2022-11-29T16:52:36.692Z,3.99
2022-11-29T16:55:03.791Z,3.95
2022-11-29T16:57:31.443Z,3.92
2022-11-29T16:59:58.318Z,3.95
2022-11-29T17:02:28.813Z,3.96
2022-11-29T17:04:57.052Z,3.93
2022-11-29T17:07:28.375Z,3.96
2022-11-29T17:09:55.606Z,3.98
2022-11-29T17:12:22.382Z,4.00
2022-11-29T17:14:49.159Z,3.99
2022-11-29T17:17:17.320Z,4.04
2022-11-29T17:19:44.425Z,4.06
2022-11-29T17:22:12.005Z,4.09
2022-11-29T17:24:42.250Z,4.09
2022-11-29T17:27:13.207Z,4.10
2022-11-29T17:29:39.950Z,4.14
2022-11-29T17:32:06.725Z,4.18
2022-11-29T17:34:33.844Z,4.23
2022-11-29T17:37:00.634Z,4.30
2022-11-29T17:39:27.431Z,4.29
2022-11-29T17:41:54.262Z,4.34
2022-11-29T17:44:21.005Z,4.40
2022-11-29T17:46:47.696Z,4.41
2022-11-29T17:49:14.508Z,4.41
2022-11-29T17:51:56.699Z,4.32
2022-11-29T17:54:23.461Z,4.44
2022-11-29T17:56:50.783Z,4.47
2022-11-29T17:59:17.626Z,4.55
2022-11-29T18:01:47.003Z,4.61
2022-11-29T18:04:14.223Z,4.63
2022-11-29T18:06:41.129Z,4.67
2022-11-29T18:09:09.826Z,4.72
2022-11-29T18:11:46.481Z,4.71
2022-11-29T18:14:23.576Z,4.68
2022-11-29T18:16:50.784Z,4.72
2022-11-29T18:19:20.173Z,4.72
2022-11-29T18:21:49.078Z,4.74
2022-11-29T18:24:16.026Z,4.77
2022-11-29T18:26:43.155Z,4.79
2022-11-29T18:29:10.255Z,4.81
2022-11-29T18:31:39.579Z,4.77
2022-11-29T18:34:09.539Z,4.78
2022-11-29T18:37:03.114Z,4.73
2022-11-29T18:39:30.501Z,4.64
2022-11-29T18:41:57.298Z,4.58
2022-11-29T18:44:29.547Z,4.51
2022-11-29T18:46:56.968Z,4.40
2022-11-29T18:49:23.779Z,4.31
2022-11-29T18:51:50.548Z,4.24
2022-11-29T18:54:18.739Z,4.17
2022-11-29T18:56:45.853Z,4.11
2022-11-29T18:59:16.769Z,4.08
2022-11-29T19:01:45.446Z,4.06
2022-11-29T19:04:17.783Z,4.08
2022-11-29T19:06:45.015Z,4.07
2022-11-29T19:09:14.887Z,4.02
2022-11-29T19:11:42.214Z,4.04
2022-11-29T19:14:14.096Z,4.05
2022-11-29T19:16:44.105Z,4.08
2022-11-29T19:19:11.340Z,4.08
2022-11-29T19:21:40.080Z,4.14
2022-11-29T19:24:13.346Z,4.20
2022-11-29T19:26:40.877Z,4.27
2022-11-29T19:29:07.750Z,4.29
2022-11-29T19:31:34.583Z,4.31
2022-11-29T19:34:01.306Z,4.39
2022-11-29T19:36:29.728Z,4.31
2022-11-29T19:38:57.847Z,4.23
2022-11-29T19:41:30.228Z,4.17
2022-11-29T19:43:58.784Z,4.22
2022-11-29T19:46:28.113Z,4.18
2022-11-29T19:48:56.493Z,4.19
2022-11-29T19:51:24.358Z,4.18
2022-11-29T19:53:55.861Z,4.10
2022-11-29T19:56:23.233Z,4.04
2022-11-29T19:58:50.443Z,4.00
2022-11-29T20:01:23.303Z,3.96
2022-11-29T20:03:50.374Z,3.98
2022-11-29T20:06:17.927Z,4.17
2022-11-29T20:08:45.306Z,4.27
2022-11-29T20:11:17.894Z,4.23
2022-11-29T20:13:46.583Z,4.23
2022-11-29T20:16:15.246Z,4.22
2022-11-29T20:18:50.204Z,4.18
2022-11-29T20:21:30.012Z,4.15
2022-11-29T20:24:02.034Z,4.13
2022-11-29T20:26:30.382Z,4.13
2022-11-29T20:28:57.465Z,4.16
2022-11-29T20:31:24.322Z,4.19
2022-11-29T20:33:54.072Z,4.16
2022-11-29T20:36:36.013Z,4.12
2022-11-29T20:39:26.269Z,4.10
2022-11-29T20:41:53.008Z,4.01
2022-11-29T20:44:59.294Z,3.99
2022-11-29T20:47:33.965Z,3.93
2022-11-29T20:50:00.858Z,3.91
2022-11-29T20:52:49.190Z,3.91
2022-11-29T20:55:16.073Z,3.90
2022-11-29T20:57:42.882Z,3.89
2022-11-29T21:00:12.228Z,3.91
2022-11-29T21:02:39.665Z,3.93
2022-11-29T21:05:07.064Z,3.89
2022-11-29T21:07:34.248Z,3.90
2022-11-29T21:10:01.835Z,3.89
2022-11-29T21:12:29.893Z,3.87
2022-11-29T21:14:57.320Z,3.84
2022-11-29T21:17:28.819Z,3.75
2022-11-29T21:20:00.156Z,3.81
2022-11-29T21:22:46.965Z,3.87
2022-11-29T21:25:58.274Z,3.97
2022-11-29T21:28:30.577Z,3.95
2022-11-29T21:30:57.688Z,3.96
2022-11-29T21:33:24.779Z,3.98
2022-11-29T21:35:54.966Z,4.00
2022-11-29T21:38:23.330Z,4.04
2022-11-29T21:40:51.198Z,4.08
2022-11-29T21:43:18.003Z,4.11
2022-11-29T21:45:47.448Z,4.17
2022-11-29T21:48:32.783Z,4.21
2022-11-29T21:50:59.815Z,4.24
2022-11-29T21:53:27.948Z,4.26
2022-11-29T21:55:58.688Z,4.28
2022-11-29T21:58:26.874Z,4.31
2022-11-29T22:00:53.615Z,4.31
2022-11-29T22:03:20.742Z,4.35
2022-11-29T22:05:47.548Z,4.37
2022-11-29T22:08:14.522Z,4.38
2022-11-29T22:10:41.369Z,4.42
2022-11-29T22:13:08.122Z,4.44
2022-11-29T22:15:34.859Z,4.41
2022-11-29T22:18:02.122Z,4.37
2022-11-29T22:20:28.894Z,4.36
2022-11-29T22:22:58.645Z,4.30
2022-11-29T22:25:25.862Z,4.26
2022-11-29T22:27:52.561Z,4.21
2022-11-29T22:30:19.726Z,4.16
2022-11-29T22:32:46.446Z,4.17
2022-11-29T22:35:13.283Z,4.17
2022-11-29T22:37:39.994Z,4.15
2022-11-29T22:40:07.241Z,4.22
2022-11-29T22:42:33.942Z,4.27
2022-11-29T22:45:02.135Z,4.26
2022-11-29T22:47:28.918Z,4.27
2022-11-29T22:49:55.705Z,4.31
2022-11-29T22:52:22.503Z,4.31
2022-11-29T22:54:49.540Z,4.33
2022-11-29T22:57:16.617Z,4.36
2022-11-29T22:59:43.388Z,4.34
2022-11-29T23:02:10.177Z,4.34
2022-11-29T23:04:37.029Z,4.32
2022-11-29T23:07:03.972Z,4.37
2022-11-29T23:09:30.708Z,4.36
2022-11-29T23:11:57.740Z,4.36
2022-11-29T23:14:24.748Z,4.42
2022-11-29T23:16:52.109Z,4.44
2022-11-29T23:19:19.086Z,4.43
2022-11-29T23:21:46.495Z,4.33
2022-11-29T23:24:14.953Z,4.26
2022-11-29T23:26:44.939Z,4.23
2022-11-29T23:29:14.130Z,4.17
2022-11-29T23:31:41.297Z,4.16
2022-11-29T23:34:08.401Z,4.18
2022-11-29T23:36:35.414Z,4.16
2022-11-29T23:39:04.391Z,4.18
2022-11-29T23:41:31.250Z,4.14
2022-11-29T23:43:59.744Z,4.14
2022-11-29T23:46:26.926Z,4.15
2022-11-29T23:48:53.751Z,4.11
2022-11-29T23:51:20.629Z,4.08
2022-11-29T23:53:51.676Z,4.08
2022-11-29T23:56:19.213Z,4.10
2022-11-29T23:58:46.294Z,4.10
